Time;durP1;ratioP1;P1;durP2;ratioP2;P2;SDS_P1;SDS_P2;PMS_P1;PMS_P2;Temp;Humidity;BMP_temperature;BMP_pressure;BME280_temperature;BME280_humidity;BME280_pressure;Samples;Min_cycle;Max_cycle;Signal;HPM_P1;HPM_P2
2023/08/16 00:00:39;;;;;;;;;10.80;10.80;;;;;19.59;72.13;100169.16;4979123;28;8836;-87
2023/08/16 00:03:06;;;;;;;;;11.20;11.00;;;;;19.63;72.06;100169.63;4978949;28;8918;-87
2023/08/16 00:05:34;;;;;;;;;7.00;7.00;;;;;19.66;72.30;100164.69;4979072;28;8868;-87
2023/08/16 00:08:03;;;;;;;;;10.80;10.80;;;;;19.70;71.88;100163.34;4979442;28;8856;-87
2023/08/16 00:10:31;;;;;;;;;10.00;8.20;;;;;19.74;71.80;100162.00;4978887;28;8847;-87
2023/08/16 00:12:58;;;;;;;;;10.80;10.80;;;;;19.78;71.97;100166.03;4978998;28;8837;-87
2023/08/16 00:15:26;;;;;;;;;7.80;7.80;;;;;19.76;72.25;100151.84;4979228;28;8863;-87
2023/08/16 00:17:55;;;;;;;;;8.40;8.00;;;;;19.71;71.85;100164.22;4979572;28;8931;-87
2023/08/16 00:20:26;;;;;;;;;6.20;6.20;;;;;19.64;72.26;100163.22;4978838;28;8829;-87
2023/08/16 00:22:54;;;;;;;;;10.20;9.80;;;;;19.58;72.62;100172.84;4979056;28;8867;-87
2023/08/16 00:25:21;;;;;;;;;9.80;9.80;;;;;19.52;72.57;100156.50;4978870;28;8852;-87
2023/08/16 00:27:49;;;;;;;;;11.20;8.40;;;;;19.47;72.59;100137.25;4978813;28;8877;-87
2023/08/16 00:30:17;;;;;;;;;12.60;12.20;;;;;19.43;72.41;100139.44;4978959;28;8845;-87
2023/08/16 00:32:44;;;;;;;;;13.60;12.20;;;;;19.42;73.02;100134.25;4979047;28;8856;-87
2023/08/16 00:35:12;;;;;;;;;10.00;8.20;;;;;19.42;73.14;100148.56;4978957;28;8855;-87
2023/08/16 00:37:40;;;;;;;;;10.60;10.00;;;;;19.40;72.70;100141.66;4978784;28;8859;-87
2023/08/16 00:40:08;;;;;;;;;11.00;9.40;;;;;19.39;72.78;100137.28;4978823;28;8861;-87
2023/08/16 00:42:36;;;;;;;;;9.00;9.00;;;;;19.39;73.25;100140.84;4978187;28;8871;-87
2023/08/16 00:45:04;;;;;;;;;7.20;7.20;;;;;19.42;73.14;100145.88;4977771;28;8867;-87
2023/08/16 00:47:31;;;;;;;;;13.00;11.60;;;;;19.41;73.10;100143.38;4978198;28;8871;-87
2023/08/16 00:49:59;;;;;;;;;8.80;8.80;;;;;19.38;72.86;100147.25;4978254;28;8877;-87
2023/08/16 00:52:26;;;;;;;;;10.60;8.60;;;;;19.35;73.40;100150.28;4977929;28;8847;-87
2023/08/16 00:54:54;;;;;;;;;8.80;8.00;;;;;19.34;73.14;100145.06;4977922;28;8844;-86
2023/08/16 00:57:22;;;;;;;;;9.00;7.80;;;;;19.32;73.36;100131.72;4977928;28;8879;-86
2023/08/16 00:59:50;;;;;;;;;12.20;11.00;;;;;19.32;72.97;100133.56;4978358;28;8845;-86
2023/08/16 01:02:17;;;;;;;;;8.40;8.20;;;;;19.32;73.17;100131.72;4977956;28;8824;-86
2023/08/16 01:04:45;;;;;;;;;10.20;9.20;;;;;19.33;73.41;100136.13;4978405;28;8840;-86
2023/08/16 01:07:13;;;;;;;;;12.40;11.00;;;;;19.32;73.33;100136.28;4978251;28;8844;-86
2023/08/16 01:09:41;;;;;;;;;12.80;11.20;;;;;19.30;73.58;100128.38;4978348;28;8864;-86
2023/08/16 01:12:09;;;;;;;;;11.80;11.00;;;;;19.28;73.26;100124.97;4978097;28;9519;-86
2023/08/16 01:14:37;;;;;;;;;10.40;10.20;;;;;19.26;73.25;100131.59;4978526;28;9549;-86
2023/08/16 01:17:04;;;;;;;;;13.00;10.40;;;;;19.25;73.69;100138.84;4978389;28;8845;-86
2023/08/16 01:19:32;;;;;;;;;10.40;10.00;;;;;19.23;73.42;100140.88;4977996;28;8856;-86
2023/08/16 01:21:59;;;;;;;;;13.00;12.60;;;;;19.20;73.77;100143.91;4977932;28;8847;-86
2023/08/16 01:24:27;;;;;;;;;11.20;10.40;;;;;19.18;73.86;100137.81;4978001;28;9503;-86
2023/08/16 01:26:55;;;;;;;;;7.80;7.20;;;;;19.17;73.71;100146.94;4978152;28;9545;-86
2023/08/16 01:29:22;;;;;;;;;10.00;8.20;;;;;19.16;73.71;100145.25;4977875;28;8849;-87
2023/08/16 01:31:50;;;;;;;;;10.80;10.00;;;;;19.17;74.19;100143.38;4977757;28;8852;-86
2023/08/16 01:34:17;;;;;;;;;9.40;9.20;;;;;19.16;73.70;100142.53;4977791;28;8863;-86
2023/08/16 01:36:45;;;;;;;;;10.20;10.20;;;;;19.17;74.00;100140.66;4977541;28;8860;-86
2023/08/16 01:39:12;;;;;;;;;9.60;9.40;;;;;19.17;73.77;100135.25;4977698;28;8845;-86
2023/08/16 01:41:40;;;;;;;;;13.80;12.60;;;;;19.13;73.90;100134.75;4977877;28;8931;-86
2023/08/16 01:44:07;;;;;;;;;9.80;9.20;;;;;19.06;74.36;100136.47;4977219;28;9556;-86
2023/08/16 01:46:35;;;;;;;;;10.80;9.20;;;;;18.99;73.90;100143.59;4977585;28;8971;-86
2023/08/16 01:49:03;;;;;;;;;9.80;9.80;;;;;18.94;74.18;100143.25;4977369;28;8879;-86
2023/08/16 01:51:31;;;;;;;;;9.60;9.60;;;;;18.90;74.68;100151.84;4977257;28;8844;-86
2023/08/16 01:53:59;;;;;;;;;9.20;9.20;;;;;18.85;74.54;100157.75;4977487;28;8865;-86
2023/08/16 01:56:27;;;;;;;;;10.40;9.20;;;;;18.80;74.86;100153.84;4977238;28;8832;-86
2023/08/16 01:58:55;;;;;;;;;12.20;12.20;;;;;18.75;75.15;100148.97;4977440;28;8833;-86
2023/08/16 02:01:22;;;;;;;;;10.00;9.00;;;;;18.71;75.00;100144.09;4977515;28;8836;-86
2023/08/16 02:03:50;;;;;;;;;11.20;10.20;;;;;18.67;74.84;100151.69;4976894;28;8825;-86
2023/08/16 02:06:18;;;;;;;;;14.40;12.00;;;;;18.64;75.11;100149.31;4976612;28;8833;-86
2023/08/16 02:08:46;;;;;;;;;12.80;12.20;;;;;18.61;74.89;100149.63;4977442;28;8857;-86
2023/08/16 02:11:13;;;;;;;;;11.40;10.00;;;;;18.57;75.28;100150.16;4977053;28;8850;-86
2023/08/16 02:13:41;;;;;;;;;9.20;9.00;;;;;18.55;75.34;100149.47;4977130;28;9499;-87
2023/08/16 02:16:09;;;;;;;;;10.80;9.80;;;;;18.52;75.14;100150.66;4977692;28;9545;-87
2023/08/16 02:18:36;;;;;;;;;11.80;11.80;;;;;18.53;75.45;100149.63;4977592;28;8976;-87
2023/08/16 02:21:04;;;;;;;;;10.00;8.60;;;;;18.52;75.31;100156.03;4977343;28;8849;-88
2023/08/16 02:23:32;;;;;;;;;9.80;9.00;;;;;18.52;75.25;100147.13;4977146;28;8861;-87
2023/08/16 02:25:59;;;;;;;;;9.40;8.40;;;;;18.48;75.34;100149.31;4977164;28;8844;-87
2023/08/16 02:28:27;;;;;;;;;9.80;9.80;;;;;18.46;75.32;100140.56;4977450;28;8829;-88
2023/08/16 02:30:54;;;;;;;;;12.00;11.20;;;;;18.44;75.56;100139.84;4976824;28;8859;-87
2023/08/16 02:33:24;;;;;;;;;13.00;12.60;;;;;18.44;75.22;100142.56;4977088;28;8862;-87
2023/08/16 02:35:51;;;;;;;;;9.40;9.00;;;;;18.41;75.51;100140.19;4977435;28;9541;-87
2023/08/16 02:38:19;;;;;;;;;12.60;10.80;;;;;18.40;75.56;100146.59;4977484;28;8871;-87
2023/08/16 02:40:46;;;;;;;;;12.00;11.60;;;;;18.39;75.62;100142.22;4976758;28;8845;-87
2023/08/16 02:43:14;;;;;;;;;12.00;11.60;;;;;18.36;75.65;100150.63;4977187;28;8863;-88
2023/08/16 02:45:41;;;;;;;;;14.60;13.00;;;;;18.33;75.95;100148.28;4977072;28;8828;-87
2023/08/16 02:48:09;;;;;;;;;10.00;10.00;;;;;18.33;75.30;100144.72;4977396;28;8914;-87
2023/08/16 02:50:37;;;;;;;;;15.20;11.60;;;;;18.30;75.62;100147.78;4977131;28;8841;-87
2023/08/16 02:53:04;;;;;;;;;11.20;10.00;;;;;18.28;75.47;100155.16;4976864;28;8837;-87
2023/08/16 02:55:32;;;;;;;;;11.60;11.20;;;;;18.24;75.64;100159.19;4977392;28;9534;-87
2023/08/16 02:58:00;;;;;;;;;12.20;11.80;;;;;18.20;75.65;100158.66;4976823;28;8857;-87
2023/08/16 03:00:27;;;;;;;;;11.40;10.20;;;;;18.19;75.90;100162.38;4977164;28;8841;-87
2023/08/16 03:02:55;;;;;;;;;9.80;9.20;;;;;18.18;76.18;100160.69;4976561;28;8832;-87
2023/08/16 03:05:23;;;;;;;;;14.00;11.60;;;;;18.16;75.58;100153.78;4976353;28;8990;-87
2023/08/16 03:07:50;;;;;;;;;12.00;12.00;;;;;18.14;75.81;100162.00;4976723;28;8840;-87
2023/08/16 03:10:18;;;;;;;;;15.60;13.00;;;;;18.13;75.56;100154.94;4976647;28;8848;-88
2023/08/16 03:12:45;;;;;;;;;9.00;9.00;;;;;18.13;76.05;100165.72;4976808;28;8829;-87
2023/08/16 03:15:13;;;;;;;;;13.20;12.00;;;;;18.13;75.43;100168.41;4976532;28;8829;-87
2023/08/16 03:17:41;;;;;;;;;10.80;10.80;;;;;18.13;75.73;100171.13;4978791;28;8922;-86
2023/08/16 03:20:10;;;;;;;;;12.00;10.60;;;;;18.12;75.67;100164.03;4980664;28;8868;-87
2023/08/16 03:22:37;;;;;;;;;11.60;11.60;;;;;18.12;75.60;100164.03;4980901;28;9494;-87
2023/08/16 03:25:05;;;;;;;;;7.00;7.00;;;;;18.12;76.10;100174.81;4980609;28;8853;-87
2023/08/16 03:27:32;;;;;;;;;11.20;9.40;;;;;18.12;76.02;100168.56;4980219;28;8851;-87
2023/08/16 03:30:00;;;;;;;;;8.20;7.40;;;;;18.12;75.65;100171.28;4980368;28;8888;-87
2023/08/16 03:32:27;;;;;;;;;13.00;12.00;;;;;18.12;76.00;100176.66;4979566;28;8841;-86
2023/08/16 03:34:55;;;;;;;;;12.60;9.80;;;;;18.12;75.96;100179.34;4979848;28;8840;-86
2023/08/16 03:37:23;;;;;;;;;12.80;12.80;;;;;18.14;75.88;100182.75;4979803;28;8864;-86
2023/08/16 03:39:52;;;;;;;;;15.00;13.40;;;;;18.16;75.31;100186.13;4980137;28;8832;-86
2023/08/16 03:42:19;;;;;;;;;9.80;9.80;;;;;18.19;75.63;100185.78;4979652;28;8990;-86
2023/08/16 03:44:47;;;;;;;;;13.40;12.60;;;;;18.22;75.56;100175.50;4979396;28;8840;-86
2023/08/16 03:47:15;;;;;;;;;12.00;10.40;;;;;18.26;75.86;100184.13;4979945;28;8852;-87
2023/08/16 03:52:25;;;;;;;;;11.20;9.80;;;;;18.29;75.35;100192.72;4979297;28;9511;-87
2023/08/16 03:54:54;;;;;;;;;9.40;9.40;;;;;18.28;75.17;100185.66;4980036;28;9545;-87
2023/08/16 03:57:21;;;;;;;;;11.60;10.80;;;;;18.26;75.40;100190.38;4979357;28;8848;-87
2023/08/16 03:59:49;;;;;;;;;13.00;13.00;;;;;18.23;75.56;100190.69;4979615;28;8840;-87
2023/08/16 04:02:17;;;;;;;;;14.60;12.80;;;;;18.23;75.48;100189.84;4979272;28;8837;-87
2023/08/16 04:04:45;;;;;;;;;12.40;11.20;;;;;18.22;75.71;100194.38;4979067;28;8872;-87
2023/08/16 04:07:13;;;;;;;;;9.00;9.00;;;;;18.22;75.65;100194.38;4979543;28;9592;-87
2023/08/16 04:09:40;;;;;;;;;13.40;12.20;;;;;18.21;75.48;100194.56;4979208;28;8927;-87
2023/08/16 04:12:08;;;;;;;;;18.80;16.40;;;;;18.16;75.43;100192.38;4979394;28;8848;-87
2023/08/16 04:14:35;;;;;;;;;13.20;11.80;;;;;18.13;75.54;100198.06;4979397;28;8990;-87
2023/08/16 04:17:03;;;;;;;;;9.80;9.00;;;;;18.12;75.58;100207.16;4980834;28;8851;-87
2023/08/16 04:19:33;;;;;;;;;15.40;12.80;;;;;18.14;75.71;100204.31;4978869;28;8840;-87
2023/08/16 04:22:01;;;;;;;;;12.60;10.80;;;;;18.18;75.60;100201.13;4978552;28;8833;-87
2023/08/16 04:24:29;;;;;;;;;15.80;14.20;;;;;18.24;75.53;100211.28;4978884;28;8864;-87
2023/08/16 04:26:56;;;;;;;;;9.00;8.20;;;;;18.30;75.07;100199.00;4978767;28;8852;-87
2023/08/16 04:29:24;;;;;;;;;13.00;12.40;;;;;18.37;75.11;100192.78;4978044;28;8833;-87
2023/08/16 04:31:52;;;;;;;;;16.40;15.00;;;;;18.44;74.94;100192.97;4978479;28;8871;-87
2023/08/16 04:34:19;;;;;;;;;21.20;18.20;;;;;18.48;74.45;100199.72;4978787;28;8844;-87
2023/08/16 04:36:47;;;;;;;;;18.00;16.40;;;;;18.52;74.68;100199.22;4978582;28;8813;-87
2023/08/16 04:39:15;;;;;;;;;14.40;12.20;;;;;18.56;74.73;100203.28;4978669;28;8864;-87
2023/08/16 04:41:46;;;;;;;;;12.00;12.00;;;;;18.59;74.95;100202.94;4978463;28;8824;-88
2023/08/16 04:44:14;;;;;;;;;15.20;14.20;;;;;18.60;74.88;100196.53;4978567;28;9479;-88
2023/08/16 04:46:41;;;;;;;;;9.60;9.00;;;;;18.64;74.83;100203.28;4978443;28;8870;-88
2023/08/16 04:49:09;;;;;;;;;11.60;10.40;;;;;18.69;74.76;100200.09;4977967;28;8840;-87
2023/08/16 04:51:37;;;;;;;;;11.80;10.40;;;;;18.70;74.93;100197.22;4978518;28;8886;-87
2023/08/16 04:54:04;;;;;;;;;12.00;11.20;;;;;18.71;74.22;100209.69;4977885;28;8840;-87
2023/08/16 04:56:32;;;;;;;;;11.00;9.00;;;;;18.74;74.80;100203.97;4977578;28;8844;-87
2023/08/16 04:58:59;;;;;;;;;3.60;3.20;;;;;18.77;74.69;100202.78;4977476;28;8844;-87
2023/08/16 05:01:27;;;;;;;;;12.80;10.60;;;;;18.82;74.51;100212.06;4977729;28;8825;-88
2023/08/16 05:03:59;;;;;;;;;13.80;11.60;;;;;18.87;74.00;100208.84;4977942;28;8894;-87
2023/08/16 05:06:27;;;;;;;;;13.60;12.60;;;;;18.92;74.38;100207.38;4977229;28;8836;-87
2023/08/16 05:08:55;;;;;;;;;13.60;13.60;;;;;18.98;73.78;100213.94;4977532;28;8837;-87
2023/08/16 05:11:22;;;;;;;;;13.20;13.00;;;;;19.05;73.80;100212.25;4976929;28;8856;-87
2023/08/16 05:13:50;;;;;;;;;14.00;12.60;;;;;19.12;74.23;100208.69;4977226;28;8848;-87
2023/08/16 05:16:18;;;;;;;;;14.80;14.80;;;;;19.20;73.33;100213.28;4977173;28;8958;-88
2023/08/16 05:18:49;;;;;;;;;15.80;15.80;;;;;19.27;73.45;100207.03;4977127;28;8848;-87
2023/08/16 05:21:17;;;;;;;;;16.00;15.40;;;;;19.36;73.41;100203.28;4976661;28;8848;-88
2023/08/16 05:23:44;;;;;;;;;18.40;16.60;;;;;19.46;73.02;100198.56;4977104;28;8841;-87
2023/08/16 05:26:12;;;;;;;;;18.00;16.40;;;;;19.58;72.81;100194.47;4976827;28;9495;-88
2023/08/16 05:28:40;;;;;;;;;18.80;18.00;;;;;19.69;72.85;100196.81;4976470;28;8848;-87
2023/08/16 05:31:08;;;;;;;;;20.00;19.20;;;;;19.78;72.53;100203.88;4976394;28;8872;-87
2023/08/16 05:33:36;;;;;;;;;18.60;14.60;;;;;19.86;72.63;100203.00;4976569;28;8912;-87
2023/08/16 05:36:03;;;;;;;;;22.00;21.20;;;;;19.93;72.64;100209.38;4975302;28;9531;-87
2023/08/16 05:38:31;;;;;;;;;22.80;19.40;;;;;19.97;72.52;100210.72;4975055;28;8840;-87
2023/08/16 05:40:59;;;;;;;;;28.20;24.20;;;;;20.00;72.51;100200.41;4974132;28;8848;-87
2023/08/16 05:43:26;;;;;;;;;28.40;21.00;;;;;20.05;72.39;100208.88;4975139;28;8856;-88
2023/08/16 05:45:54;;;;;;;;;19.60;17.40;;;;;20.08;72.73;100197.69;4975056;28;8857;-87
2023/08/16 05:48:22;;;;;;;;;20.80;18.20;;;;;20.13;72.45;100189.91;4974223;28;8840;-87
2023/08/16 05:50:50;;;;;;;;;23.80;23.40;;;;;20.19;72.53;100194.59;4974499;28;8852;-87
2023/08/16 05:53:17;;;;;;;;;18.80;17.00;;;;;20.27;72.39;100202.69;4973990;28;8867;-87
2023/08/16 05:55:45;;;;;;;;;25.40;22.20;;;;;20.35;72.44;100208.06;4973996;28;8849;-87
2023/08/16 05:58:13;;;;;;;;;22.80;21.40;;;;;20.37;72.60;100215.97;4974448;28;8832;-88
2023/08/16 06:00:40;;;;;;;;;22.60;22.00;;;;;20.40;71.82;100229.16;4974453;28;8852;-87
2023/08/16 06:03:08;;;;;;;;;25.40;21.20;;;;;20.40;71.97;100223.75;4974895;28;8840;-87
2023/08/16 06:05:36;;;;;;;;;31.00;28.60;;;;;20.38;72.54;100225.75;4974915;28;9008;-87
2023/08/16 06:08:04;;;;;;;;;14.00;12.40;;;;;20.37;72.20;100224.94;4975098;28;8848;-87
2023/08/16 06:10:34;;;;;;;;;22.80;21.60;;;;;20.37;72.70;100221.38;4976228;28;8856;-87
2023/08/16 06:13:02;;;;;;;;;25.40;24.60;;;;;20.37;72.92;100224.94;4975486;28;8852;-87
2023/08/16 06:15:30;;;;;;;;;28.80;25.80;;;;;20.36;72.93;100217.00;4975981;28;8852;-87
2023/08/16 06:17:57;;;;;;;;;26.00;20.80;;;;;20.36;72.42;100217.00;4975761;28;8868;-87
2023/08/16 06:20:25;;;;;;;;;24.00;19.40;;;;;20.36;72.96;100227.81;4975888;28;9609;-87
2023/08/16 06:22:53;;;;;;;;;22.80;22.80;;;;;20.34;72.64;100224.44;4975425;28;8840;-90
2023/08/16 06:25:21;;;;;;;;;23.00;20.80;;;;;20.31;72.89;100222.13;4975666;28;8860;-87
2023/08/16 06:27:49;;;;;;;;;18.20;17.00;;;;;20.31;73.21;100225.63;4976210;28;8837;-87
2023/08/16 06:30:16;;;;;;;;;32.00;28.20;;;;;20.31;72.81;100227.53;4976045;28;8906;-87
2023/08/16 06:32:46;;;;;;;;;25.20;24.20;;;;;20.28;73.28;100217.03;4976061;28;9625;-87
2023/08/16 06:35:14;;;;;;;;;26.20;23.80;;;;;20.27;72.78;100224.31;4975132;28;8852;-87
2023/08/16 06:37:42;;;;;;;;;25.60;25.40;;;;;20.27;72.78;100232.44;4974728;28;8848;-87
2023/08/16 06:40:10;;;;;;;;;23.80;21.00;;;;;20.27;73.21;100242.41;4974745;28;8864;-86
2023/08/16 06:42:39;;;;;;;;;32.40;28.60;;;;;20.28;73.58;100252.19;4975523;28;8859;-88
2023/08/16 06:45:07;;;;;;;;;28.00;23.60;;;;;20.27;73.18;100250.53;4974101;28;8882;-87
2023/08/16 06:47:35;;;;;;;;;24.40;21.00;;;;;20.24;73.49;100257.13;4974958;28;8859;-87
2023/08/16 06:50:04;;;;;;;;;27.60;24.40;;;;;20.23;73.47;100268.97;4973897;28;8862;-87
2023/08/16 06:52:32;;;;;;;;;24.20;20.00;;;;;20.22;73.48;100271.84;4977399;28;8844;-88
2023/08/16 06:55:00;;;;;;;;;24.20;17.00;;;;;20.23;73.96;100270.81;4981701;28;8991;-87
2023/08/16 06:57:28;;;;;;;;;27.00;23.20;;;;;20.23;73.72;100277.06;4980028;28;8848;-87
2023/08/16 06:59:55;;;;;;;;;20.20;16.60;;;;;20.23;73.42;100271.66;4977689;28;8885;-87
2023/08/16 07:02:23;;;;;;;;;24.40;21.20;;;;;20.24;73.92;100270.66;4977963;28;9558;-87
2023/08/16 07:04:53;;;;;;;;;22.00;21.80;;;;;20.27;73.58;100278.44;4981077;28;8856;-87
2023/08/16 07:07:22;;;;;;;;;24.80;22.00;;;;;20.32;73.75;100276.03;4977818;28;8862;-87
2023/08/16 07:09:50;;;;;;;;;27.20;22.80;;;;;20.36;73.19;100273.81;4978577;28;8860;-87
2023/08/16 07:12:18;;;;;;;;;28.80;26.00;;;;;20.41;73.22;100274.13;4978305;28;8852;-86
2023/08/16 07:14:48;;;;;;;;;25.00;20.00;;;;;20.50;73.37;100271.22;4978317;28;8883;-87
2023/08/16 07:17:16;;;;;;;;;25.20;22.80;;;;;20.63;72.94;100271.47;4978436;28;8856;-87
2023/08/16 07:19:47;;;;;;;;;19.40;19.00;;;;;20.77;72.60;100269.88;4978587;28;8852;-86
2023/08/16 07:22:15;;;;;;;;;27.40;26.40;;;;;20.89;72.33;100261.19;4978454;28;8988;-86
2023/08/16 07:24:43;;;;;;;;;29.60;26.00;;;;;20.96;71.79;100264.88;4978272;28;8852;-86
2023/08/16 07:27:11;;;;;;;;;24.80;20.40;;;;;20.99;71.75;100259.94;4977745;28;8845;-86
2023/08/16 07:29:39;;;;;;;;;23.00;22.00;;;;;21.02;72.20;100269.56;4977891;28;9139;-85
2023/08/16 07:32:07;;;;;;;;;24.20;23.40;;;;;21.05;72.05;100271.91;4977971;28;9519;-86
2023/08/16 07:34:35;;;;;;;;;26.20;22.80;;;;;21.04;71.96;100278.34;4977522;28;9758;-86
2023/08/16 07:37:03;;;;;;;;;27.60;25.80;;;;;21.04;72.06;100284.59;4977822;28;8860;-86
2023/08/16 07:39:32;;;;;;;;;30.80;25.80;;;;;21.02;72.11;100300.19;4976916;28;8879;-86
2023/08/16 07:42:00;;;;;;;;;22.80;22.80;;;;;20.96;72.41;100298.19;4977150;28;8837;-86
2023/08/16 07:44:28;;;;;;;;;21.60;18.00;;;;;20.93;72.92;100295.00;4977469;28;8848;-86
2023/08/16 07:46:56;;;;;;;;;30.20;26.20;;;;;20.90;72.79;100298.91;4977053;28;8836;-86
2023/08/16 07:49:24;;;;;;;;;22.60;20.20;;;;;20.87;72.68;100286.75;4977387;28;8864;-86
2023/08/16 07:51:51;;;;;;;;;24.80;21.60;;;;;20.84;72.99;100294.19;4977334;28;8966;-86
2023/08/16 07:54:19;;;;;;;;;19.80;17.80;;;;;20.84;72.67;100288.78;4977561;28;8931;-86
2023/08/16 07:56:47;;;;;;;;;30.60;27.40;;;;;20.87;72.83;100287.63;4977398;28;8840;-86
2023/08/16 07:59:15;;;;;;;;;29.40;23.80;;;;;20.89;72.69;100290.97;4976924;28;8930;-86
2023/08/16 08:01:43;;;;;;;;;26.40;24.60;;;;;20.89;72.60;100280.97;4976816;28;8856;-87
2023/08/16 08:04:11;;;;;;;;;23.40;21.40;;;;;20.92;73.11;100278.94;4975542;28;8883;-86
2023/08/16 08:06:39;;;;;;;;;24.00;19.80;;;;;20.92;72.83;100274.34;4976173;28;8856;-86
2023/08/16 08:09:06;;;;;;;;;22.80;21.00;;;;;20.93;73.33;100286.88;4974936;28;8935;-86
2023/08/16 08:11:34;;;;;;;;;25.80;24.00;;;;;20.95;72.95;100295.69;4975789;28;8848;-86
2023/08/16 08:14:02;;;;;;;;;21.20;18.40;;;;;20.97;72.81;100297.16;4975619;28;9001;-86
2023/08/16 08:16:30;;;;;;;;;23.80;22.80;;;;;21.00;72.67;100293.25;4975997;28;8935;-86
2023/08/16 08:18:58;;;;;;;;;20.60;18.60;;;;;21.06;72.43;100303.38;4976630;28;8972;-86
2023/08/16 08:21:26;;;;;;;;;23.20;21.00;;;;;21.15;72.69;100316.69;4976591;28;8859;-86
2023/08/16 08:23:54;;;;;;;;;27.00;25.60;;;;;21.23;72.47;100307.66;4976311;28;8860;-86
2023/08/16 08:26:24;;;;;;;;;22.20;20.60;;;;;21.27;71.98;100311.69;4977286;28;8856;-86
2023/08/16 08:28:52;;;;;;;;;25.60;21.40;;;;;21.28;72.49;100307.97;4977309;28;8842;-86
2023/08/16 08:31:21;;;;;;;;;29.40;24.00;;;;;21.29;72.54;100306.94;4977505;28;8852;-86
2023/08/16 08:33:49;;;;;;;;;26.00;23.00;;;;;21.34;72.16;100312.66;4977504;28;8873;-87
2023/08/16 08:36:17;;;;;;;;;20.60;19.40;;;;;21.39;72.12;100305.66;4977272;28;8852;-85
2023/08/16 08:38:44;;;;;;;;;16.20;15.00;;;;;21.44;71.96;100302.41;4977228;28;8829;-85
2023/08/16 08:41:12;;;;;;;;;24.00;22.40;;;;;21.50;72.44;100307.09;4977160;28;8848;-86
2023/08/16 08:43:40;;;;;;;;;23.80;22.00;;;;;21.53;71.57;100307.56;4977707;28;9534;-85
2023/08/16 08:46:25;;;;;;;;;28.60;27.40;;;;;21.55;71.90;100307.41;4976782;28;8922;-85
2023/08/16 08:48:53;;;;;;;;;28.80;24.20;;;;;21.56;71.95;100303.66;4976800;28;8836;-85
2023/08/16 08:51:21;;;;;;;;;22.80;21.00;;;;;21.55;72.12;100315.53;4976523;28;8836;-86
2023/08/16 08:53:48;;;;;;;;;25.60;22.40;;;;;21.62;72.11;100305.63;4976397;28;8833;-85
2023/08/16 08:56:17;;;;;;;;;28.40;26.40;;;;;21.76;71.90;100313.84;4976760;28;8855;-86
2023/08/16 08:58:45;;;;;;;;;31.40;28.80;;;;;21.89;71.13;100307.78;4976560;28;8856;-85
2023/08/16 09:01:15;;;;;;;;;29.40;26.20;;;;;21.97;71.18;100311.25;4975883;28;8847;-86
2023/08/16 09:03:44;;;;;;;;;30.00;25.80;;;;;21.95;71.37;100318.72;4976746;28;8858;-86
2023/08/16 09:06:12;;;;;;;;;24.00;21.80;;;;;21.90;71.50;100325.72;4976895;28;9550;-86
2023/08/16 09:08:41;;;;;;;;;18.60;18.20;;;;;21.83;71.43;100324.78;4976371;28;8864;-86
2023/08/16 09:11:10;;;;;;;;;23.40;19.20;;;;;21.75;72.00;100320.28;4975832;28;8845;-85
2023/08/16 09:13:38;;;;;;;;;23.00;21.80;;;;;21.66;72.15;100337.66;4975852;28;8874;-85
2023/08/16 09:16:05;;;;;;;;;27.60;24.60;;;;;21.59;72.24;100333.09;4975650;28;8848;-85
2023/08/16 09:18:33;;;;;;;;;25.80;22.00;;;;;21.52;72.48;100333.00;4976558;28;8857;-86
2023/08/16 09:21:01;;;;;;;;;27.20;24.60;;;;;21.49;72.29;100337.94;4975858;28;8959;-86
2023/08/16 09:23:29;;;;;;;;;25.00;23.20;;;;;21.46;72.28;100333.72;4976275;28;8852;-86
2023/08/16 09:25:56;;;;;;;;;30.60;27.60;;;;;21.43;72.91;100312.41;4976547;28;8864;-86
2023/08/16 09:28:24;;;;;;;;;28.40;26.00;;;;;21.43;72.87;100327.81;4976895;28;8866;-86
2023/08/16 09:30:53;;;;;;;;;24.20;21.20;;;;;21.45;72.51;100331.19;4976065;28;8848;-86
2023/08/16 09:33:24;;;;;;;;;31.00;26.60;;;;;21.51;72.92;100327.75;4976638;28;8856;-86
2023/08/16 09:35:52;;;;;;;;;34.20;29.00;;;;;21.55;72.71;100326.38;4976253;28;8934;-85
2023/08/16 09:38:23;;;;;;;;;27.00;24.40;;;;;21.59;72.51;100319.56;4975825;28;9022;-86
2023/08/16 09:40:54;;;;;;;;;27.00;24.20;;;;;21.63;71.83;100326.31;4976052;28;8827;-86
2023/08/16 09:43:21;;;;;;;;;25.40;22.80;;;;;21.70;72.54;100330.00;4976410;28;8860;-86
2023/08/16 09:45:50;;;;;;;;;26.80;25.20;;;;;21.74;71.74;100321.31;4975303;28;8869;-86
2023/08/16 09:48:17;;;;;;;;;36.40;30.20;;;;;21.78;71.83;100310.94;4976037;28;8849;-86
2023/08/16 09:50:45;;;;;;;;;25.80;23.40;;;;;21.81;71.59;100310.56;4976123;28;8829;-86
2023/08/16 09:53:16;;;;;;;;;26.20;25.60;;;;;21.85;71.59;100306.47;4976006;28;8852;-86
2023/08/16 09:56:01;;;;;;;;;25.20;21.60;;;;;21.90;71.61;100304.88;4975978;28;8845;-86
2023/08/16 09:58:30;;;;;;;;;28.60;25.60;;;;;21.91;71.44;100306.56;4976192;28;8840;-87
2023/08/16 10:00:59;;;;;;;;;31.00;23.20;;;;;21.89;71.98;100305.06;4975847;28;8840;-86
2023/08/16 10:03:47;;;;;;;;;31.40;28.80;;;;;21.86;72.25;100297.31;4975415;28;9574;-87
2023/08/16 10:06:27;;;;;;;;;31.40;27.40;;;;;21.86;72.16;100292.69;4975264;28;8845;-86
2023/08/16 10:08:57;;;;;;;;;32.40;27.60;;;;;21.87;72.11;100297.09;4975130;28;8817;-86
2023/08/16 10:11:28;;;;;;;;;28.40;23.80;;;;;21.88;71.78;100292.53;4974042;28;8883;-87
2023/08/16 10:13:56;;;;;;;;;25.20;23.40;;;;;21.91;72.10;100294.84;4974483;28;8848;-87
2023/08/16 10:16:23;;;;;;;;;24.60;22.60;;;;;21.93;71.52;100292.81;4973951;28;8832;-86
2023/08/16 10:18:52;;;;;;;;;29.20;25.80;;;;;21.99;71.30;100286.63;4973723;28;8984;-87
2023/08/16 10:21:20;;;;;;;;;28.20;24.60;;;;;22.13;71.12;100288.50;4974316;28;8860;-87
2023/08/16 10:23:47;;;;;;;;;26.00;24.80;;;;;22.29;71.15;100294.59;4975773;28;8853;-87
2023/08/16 10:26:15;;;;;;;;;31.40;27.80;;;;;22.40;70.98;100293.28;4978224;28;8862;-87
2023/08/16 10:28:44;;;;;;;;;29.20;26.40;;;;;22.45;70.93;100304.44;4977041;28;8840;-86
2023/08/16 10:31:13;;;;;;;;;29.80;24.40;;;;;22.54;70.39;100306.03;4974743;28;9518;-87
2023/08/16 10:33:44;;;;;;;;;26.20;22.60;;;;;22.63;70.67;100316.56;4975024;28;8856;-87
2023/08/16 10:36:12;;;;;;;;;25.60;22.00;;;;;22.62;70.52;100323.03;4974827;28;8918;-86
2023/08/16 10:38:41;;;;;;;;;22.80;19.80;;;;;22.57;70.28;100313.78;4975164;28;8982;-87
2023/08/16 10:41:09;;;;;;;;;20.60;19.00;;;;;22.52;70.90;100303.50;4974704;28;9003;-87
2023/08/16 10:43:42;;;;;;;;;18.40;15.80;;;;;22.51;70.99;100309.09;4974772;28;8906;-87
2023/08/16 10:46:14;;;;;;;;;22.00;16.40;;;;;22.50;70.88;100308.28;4974972;28;8844;-87
2023/08/16 10:48:42;;;;;;;;;21.60;17.60;;;;;22.51;70.69;100307.25;4974921;28;8852;-87
2023/08/16 10:51:10;;;;;;;;;16.60;16.20;;;;;22.54;71.18;100309.56;4974591;28;8860;-87
2023/08/16 10:53:39;;;;;;;;;20.20;19.80;;;;;22.57;70.87;100301.06;4974852;28;8849;-87
2023/08/16 10:56:07;;;;;;;;;19.40;18.60;;;;;22.70;70.51;100303.91;4974737;28;8845;-87
2023/08/16 10:58:35;;;;;;;;;13.40;12.80;;;;;22.88;70.40;100298.06;4973389;28;8995;-87
2023/08/16 11:01:04;;;;;;;;;17.20;14.60;;;;;23.07;70.18;100298.28;4973658;28;8841;-86
2023/08/16 11:03:32;;;;;;;;;15.20;13.60;;;;;23.26;68.92;100296.84;4974844;28;8852;-86
2023/08/16 11:06:01;;;;;;;;;10.20;10.20;;;;;23.41;69.13;100301.19;4975355;28;8868;-87
2023/08/16 11:08:28;;;;;;;;;20.40;17.60;;;;;23.48;69.08;100307.53;4974663;28;8868;-87
2023/08/16 11:10:56;;;;;;;;;12.40;12.00;;;;;23.44;68.93;100302.69;4974075;28;8983;-87
2023/08/16 11:13:24;;;;;;;;;13.00;13.00;;;;;23.45;68.80;100294.28;4974168;28;8848;-87
2023/08/16 11:15:52;;;;;;;;;16.00;14.20;;;;;23.48;68.98;100301.22;4974222;28;8860;-87
2023/08/16 11:18:20;;;;;;;;;14.20;13.80;;;;;23.47;69.20;100308.56;4974409;28;8864;-86
2023/08/16 11:20:59;;;;;;;;;9.40;9.40;;;;;23.48;68.92;100307.53;4974831;28;8852;-87
2023/08/16 11:23:27;;;;;;;;;11.60;10.80;;;;;23.48;69.00;100302.09;4974483;28;8852;-87
2023/08/16 11:25:55;;;;;;;;;12.60;11.80;;;;;23.44;68.93;100302.69;4974134;28;8852;-87